createdAt,value
2023-03-28T00:01:05.263Z,98870.60
2023-03-28T00:04:03.833Z,98866.20
2023-03-28T00:07:01.337Z,98873.40
2023-03-28T00:09:59.229Z,98887.00
2023-03-28T00:12:56.781Z,98887.00
2023-03-28T00:15:54.796Z,98891.60
2023-03-28T00:18:53.092Z,98891.40
2023-03-28T00:21:51.417Z,98893.20
2023-03-28T00:24:49.636Z,98896.80
2023-03-28T00:27:47.109Z,98900.40
2023-03-28T00:30:44.996Z,98902.20
2023-03-28T00:33:44.232Z,98906.00
2023-03-28T00:36:41.720Z,98908.60
2023-03-28T00:39:40.535Z,98911.00
2023-03-28T00:42:38.002Z,98909.00
2023-03-28T00:45:35.864Z,98904.20
2023-03-28T00:48:33.740Z,98907.20
2023-03-28T00:51:31.199Z,98899.20
2023-03-28T00:54:29.149Z,98904.20
2023-03-28T00:57:26.576Z,98912.20
2023-03-28T01:00:24.459Z,98909.20
2023-03-28T01:03:22.774Z,98902.80
2023-03-28T01:06:22.049Z,98903.20
2023-03-28T01:09:19.523Z,98906.60
2023-03-28T01:12:17.368Z,98905.60
2023-03-28T01:15:14.900Z,98907.20
2023-03-28T01:18:12.951Z,98918.20
2023-03-28T01:21:10.900Z,98925.40
2023-03-28T01:24:11.296Z,98923.80
2023-03-28T01:27:10.221Z,98935.20
2023-03-28T01:30:07.802Z,98925.40
2023-03-28T01:33:05.813Z,98929.20
2023-03-28T01:36:03.911Z,98931.80
2023-03-28T01:39:01.472Z,98934.40
2023-03-28T01:41:59.316Z,98940.40
2023-03-28T01:44:56.903Z,98939.20
2023-03-28T01:47:54.788Z,98940.00
2023-03-28T01:50:52.678Z,98940.00
2023-03-28T01:53:50.234Z,98940.80
2023-03-28T01:56:48.258Z,98941.80
2023-03-28T01:59:46.194Z,98942.40
2023-03-28T02:02:44.180Z,98947.00
2023-03-28T02:05:41.747Z,98948.40
2023-03-28T02:08:39.587Z,98953.40
2023-03-28T02:11:37.007Z,98950.40
2023-03-28T02:14:34.908Z,98953.20
2023-03-28T02:17:32.365Z,98951.80
2023-03-28T02:20:30.349Z,98960.20
2023-03-28T02:23:27.807Z,98960.00
2023-03-28T02:26:25.671Z,98965.00
2023-03-28T02:29:23.309Z,98966.00
2023-03-28T02:32:22.241Z,98969.80
2023-03-28T02:35:20.549Z,98965.80
2023-03-28T02:38:18.252Z,98972.40
2023-03-28T02:41:16.050Z,98977.80
2023-03-28T02:44:13.524Z,98975.80
2023-03-28T02:47:11.295Z,98981.80
2023-03-28T02:50:08.729Z,98978.80
2023-03-28T02:53:06.446Z,98980.20
2023-03-28T02:56:05.091Z,98972.60
2023-03-28T02:59:04.186Z,98968.80
2023-03-28T03:02:02.369Z,98966.00
2023-03-28T03:05:01.890Z,98961.80
2023-03-28T03:07:59.525Z,98965.60
2023-03-28T03:10:57.177Z,98969.00
2023-03-28T03:13:54.981Z,98972.40
2023-03-28T03:16:52.757Z,98973.80
2023-03-28T03:19:50.532Z,98973.20
2023-03-28T03:22:48.140Z,98978.40
2023-03-28T03:25:45.606Z,98986.60
2023-03-28T03:28:44.849Z,98982.60
2023-03-28T03:31:42.704Z,98989.20
2023-03-28T03:34:41.701Z,98986.20
2023-03-28T03:37:39.187Z,98995.60
2023-03-28T03:40:36.813Z,98993.60
2023-03-28T03:43:34.589Z,98993.60
2023-03-28T03:46:32.254Z,98993.60
2023-03-28T03:49:30.053Z,98993.20
2023-03-28T03:52:27.512Z,99002.20
2023-03-28T03:55:26.855Z,99005.40
2023-03-28T03:58:24.306Z,99011.60
2023-03-28T04:01:21.977Z,99002.80
2023-03-28T04:04:19.797Z,99013.20
2023-03-28T04:07:17.328Z,99014.00
2023-03-28T04:10:15.138Z,99004.80
2023-03-28T04:13:12.603Z,99008.20
2023-03-28T04:16:10.502Z,99005.00
2023-03-28T04:19:07.948Z,99000.60
2023-03-28T04:22:08.474Z,99011.20
2023-03-28T04:25:06.307Z,99012.40
2023-03-28T04:28:04.083Z,99015.20
2023-03-28T04:31:01.918Z,99019.60
2023-03-28T04:34:00.565Z,99019.60
2023-03-28T04:37:02.170Z,99022.60
2023-03-28T04:40:01.738Z,99028.00
2023-03-28T04:42:59.331Z,99032.20
2023-03-28T04:45:56.801Z,99034.00
2023-03-28T04:48:56.357Z,99047.40
2023-03-28T04:51:55.754Z,99038.40
2023-03-28T04:54:53.225Z,99041.80
2023-03-28T04:57:50.849Z,99053.20
2023-03-28T05:00:49.811Z,99053.60
2023-03-28T05:03:47.512Z,99050.00
2023-03-28T05:06:45.372Z,99055.20
2023-03-28T05:09:43.468Z,99057.20
2023-03-28T05:12:41.223Z,99065.20
2023-03-28T05:15:38.683Z,99063.20
2023-03-28T05:18:36.416Z,99063.00
2023-03-28T05:21:33.866Z,99077.80
2023-03-28T05:24:31.490Z,99078.60
2023-03-28T05:27:28.991Z,99093.00
2023-03-28T05:30:26.680Z,99079.40
2023-03-28T05:33:24.564Z,99079.20
2023-03-28T05:36:22.102Z,99078.20
2023-03-28T05:39:19.886Z,99082.20
2023-03-28T05:42:17.334Z,99078.40
2023-03-28T05:45:15.113Z,99073.20
2023-03-28T05:48:13.487Z,99075.60
2023-03-28T05:51:10.951Z,99083.80
2023-03-28T05:54:08.722Z,99092.20
2023-03-28T05:57:06.165Z,99080.80
2023-03-28T06:00:12.313Z,99081.40
2023-03-28T06:03:09.823Z,99085.20
2023-03-28T06:06:15.549Z,99074.80
2023-03-28T06:09:13.136Z,99073.40
2023-03-28T06:12:10.876Z,99083.80
2023-03-28T06:15:10.402Z,99080.00
2023-03-28T06:18:07.915Z,99081.40
2023-03-28T06:21:06.351Z,99084.00
2023-03-28T06:24:03.816Z,99088.80
2023-03-28T06:27:01.466Z,99089.00
2023-03-28T06:30:00.313Z,99084.40
2023-03-28T06:32:57.873Z,99082.40
2023-03-28T06:35:56.249Z,99081.80
2023-03-28T06:38:55.050Z,99085.00
2023-03-28T06:41:55.119Z,99076.60
2023-03-28T06:44:52.690Z,99070.80
2023-03-28T06:47:50.510Z,99078.40
2023-03-28T06:50:50.360Z,99084.20
2023-03-28T06:53:48.232Z,99081.60
2023-03-28T06:56:46.251Z,99083.80
2023-03-28T06:59:43.755Z,99082.60
2023-03-28T07:02:41.967Z,99088.80
2023-03-28T07:05:39.801Z,99102.60
2023-03-28T07:08:37.517Z,99106.80
2023-03-28T07:11:34.982Z,99106.20
2023-03-28T07:14:33.035Z,99110.80
2023-03-28T07:17:30.528Z,99101.80
2023-03-28T07:20:28.459Z,99118.80
2023-03-28T07:23:26.003Z,99120.80
2023-03-28T07:26:23.636Z,99125.40
2023-03-28T07:29:21.352Z,99120.60
2023-03-28T07:32:18.829Z,99122.40
2023-03-28T07:35:16.574Z,99131.00
2023-03-28T07:38:14.017Z,99130.00
2023-03-28T07:41:11.990Z,99138.20
2023-03-28T07:44:09.445Z,99141.40
2023-03-28T07:47:07.416Z,99136.20
2023-03-28T07:50:06.125Z,99141.00
2023-03-28T07:53:03.678Z,99144.40
2023-03-28T07:56:01.327Z,99148.60
2023-03-28T07:58:58.783Z,99155.20
2023-03-28T08:01:56.586Z,99160.40
2023-03-28T08:04:54.641Z,99170.60
2023-03-28T08:07:54.887Z,99165.80
2023-03-28T08:10:53.508Z,99156.60
2023-03-28T08:13:50.987Z,99168.60
2023-03-28T08:16:48.805Z,99179.00
2023-03-28T08:19:46.275Z,99180.60
2023-03-28T08:22:43.921Z,99187.20
2023-03-28T08:25:41.383Z,99184.40
2023-03-28T08:28:39.550Z,99187.20
2023-03-28T08:31:37.220Z,99192.20
2023-03-28T08:34:34.860Z,99191.60
2023-03-28T08:37:32.961Z,99200.40
2023-03-28T08:40:30.426Z,99202.80
2023-03-28T08:43:28.178Z,99203.80
2023-03-28T08:46:25.650Z,99210.80
2023-03-28T08:49:23.737Z,99217.40
2023-03-28T08:52:21.182Z,99225.00
2023-03-28T08:55:18.812Z,99223.20
2023-03-28T08:58:21.227Z,99221.40
2023-03-28T09:01:22.274Z,99222.20
2023-03-28T09:04:20.972Z,99216.00
2023-03-28T09:07:18.495Z,99225.00
2023-03-28T09:10:19.265Z,99226.60
2023-03-28T09:13:17.376Z,99209.20
2023-03-28T09:16:17.607Z,99213.60
2023-03-28T09:19:16.236Z,99218.00
2023-03-28T09:22:16.027Z,99229.20
2023-03-28T09:25:13.832Z,99243.60
2023-03-28T09:28:11.997Z,99266.80
2023-03-28T09:31:10.225Z,99270.40
2023-03-28T09:34:07.687Z,99266.60
2023-03-28T09:37:05.337Z,99265.80
2023-03-28T09:40:03.921Z,99261.80
2023-03-28T09:43:01.666Z,99275.40
2023-03-28T09:46:00.697Z,99283.60
2023-03-28T09:48:58.302Z,99299.20
2023-03-28T09:51:56.263Z,99312.00
2023-03-28T09:54:53.715Z,99304.20
2023-03-28T09:57:51.506Z,99316.60
2023-03-28T10:00:49.004Z,99308.40
2023-03-28T10:03:47.010Z,99298.80
2023-03-28T10:06:44.450Z,99306.40
2023-03-28T10:09:42.488Z,99316.00
2023-03-28T10:12:41.932Z,99305.00
2023-03-28T10:15:39.694Z,99341.40
2023-03-28T10:18:37.450Z,99348.00
2023-03-28T10:21:34.909Z,99348.40
2023-03-28T10:24:34.310Z,99334.40
2023-03-28T10:27:31.921Z,99350.60
2023-03-28T10:30:29.834Z,99349.20
2023-03-28T10:33:27.303Z,99338.80
2023-03-28T10:36:24.979Z,99327.00
2023-03-28T10:39:22.524Z,99334.20
2023-03-28T10:42:21.015Z,99329.00
2023-03-28T10:45:18.622Z,99331.40
2023-03-28T10:48:16.088Z,99337.80
2023-03-28T10:51:13.772Z,99343.40
2023-03-28T10:54:11.225Z,99338.80
2023-03-28T10:57:08.940Z,99349.20
2023-03-28T11:00:08.513Z,99369.00
2023-03-28T11:03:06.371Z,99353.60
2023-03-28T11:06:09.342Z,99356.80
2023-03-28T11:09:07.990Z,99357.40
2023-03-28T11:12:05.704Z,99365.00
2023-03-28T11:15:03.244Z,99362.00
2023-03-28T11:18:01.092Z,99354.80
2023-03-28T11:20:58.738Z,99346.80
2023-03-28T11:23:56.682Z,99356.40
2023-03-28T11:27:02.085Z,99349.60
2023-03-28T11:30:08.406Z,99362.40
2023-03-28T11:33:06.013Z,99357.20
2023-03-28T11:36:03.702Z,99352.20
2023-03-28T11:39:01.183Z,99335.40
2023-03-28T11:41:59.999Z,99316.00
2023-03-28T11:44:57.672Z,99318.40
2023-03-28T11:47:55.158Z,99328.20
2023-03-28T11:50:52.814Z,99320.60
2023-03-28T11:53:50.468Z,99313.60
2023-03-28T11:56:48.680Z,99310.80
2023-03-28T11:59:46.724Z,99330.80
2023-03-28T12:02:44.337Z,99305.20
2023-03-28T12:05:42.432Z,99307.20
2023-03-28T12:08:39.881Z,99311.60
2023-03-28T12:11:37.474Z,99342.80
2023-03-28T12:14:34.900Z,99366.20
2023-03-28T12:17:32.669Z,99428.00
2023-03-28T12:20:30.190Z,99362.00
2023-03-28T12:23:28.839Z,99350.60
2023-03-28T12:26:26.700Z,99353.60
2023-03-28T12:29:25.719Z,99355.60
2023-03-28T12:32:25.762Z,99351.20
2023-03-28T12:35:23.623Z,99349.00
2023-03-28T12:38:21.368Z,99346.60
2023-03-28T12:41:19.549Z,99340.80
2023-03-28T12:44:16.984Z,99353.60
2023-03-28T12:47:14.766Z,99347.80
2023-03-28T12:50:12.219Z,99349.40
2023-03-28T12:53:10.013Z,99350.40
2023-03-28T12:56:07.474Z,99350.80
2023-03-28T12:59:05.221Z,99358.20
2023-03-28T13:02:02.766Z,99352.80
2023-03-28T13:05:00.472Z,99344.40
2023-03-28T13:07:58.103Z,99345.60
2023-03-28T13:10:55.549Z,99352.20
2023-03-28T13:13:53.389Z,99378.60
2023-03-28T13:16:50.838Z,99361.40
2023-03-28T13:19:48.586Z,99352.40
2023-03-28T13:22:46.153Z,99361.60
2023-03-28T13:25:43.901Z,99359.60
2023-03-28T13:28:41.644Z,99368.00
2023-03-28T13:31:39.130Z,99377.00
2023-03-28T13:34:37.194Z,99370.60
2023-03-28T13:37:34.660Z,99378.00
2023-03-28T13:40:32.370Z,99377.00
2023-03-28T13:43:29.819Z,99376.80
2023-03-28T13:46:27.581Z,99377.00
2023-03-28T13:49:25.306Z,99369.60
2023-03-28T13:52:22.768Z,99365.00
2023-03-28T13:55:21.041Z,99373.40
2023-03-28T13:58:19.049Z,99360.60
2023-03-28T14:01:17.067Z,99369.80
2023-03-28T14:04:15.039Z,99363.60
2023-03-28T14:07:12.838Z,99377.40
2023-03-28T14:10:10.332Z,99388.40
2023-03-28T14:13:08.436Z,99399.60
2023-03-28T14:16:06.259Z,99399.00
2023-03-28T14:19:03.804Z,99403.80
2023-03-28T14:22:01.590Z,99392.60
2023-03-28T14:24:59.053Z,99392.80
2023-03-28T14:27:57.155Z,99410.40
2023-03-28T14:30:54.739Z,99396.00
2023-03-28T14:33:53.164Z,99398.20
2023-03-28T14:36:51.418Z,99400.20
2023-03-28T14:39:48.899Z,99394.80
2023-03-28T14:42:46.552Z,99408.00
2023-03-28T14:45:44.791Z,99411.40
2023-03-28T14:48:42.612Z,99416.40
2023-03-28T14:51:40.038Z,99414.00
2023-03-28T14:54:38.137Z,99414.20
2023-03-28T14:57:38.104Z,99414.60
2023-03-28T15:00:35.535Z,99412.80
2023-03-28T15:03:33.767Z,99406.60
2023-03-28T15:06:31.453Z,99401.20
2023-03-28T15:09:29.480Z,99404.40
2023-03-28T15:12:27.051Z,99400.40
2023-03-28T15:15:24.741Z,99405.40
2023-03-28T15:18:25.595Z,99403.40
2023-03-28T15:21:23.895Z,99413.20
2023-03-28T15:24:21.645Z,99406.40
2023-03-28T15:27:19.093Z,99418.80
2023-03-28T15:30:16.757Z,99417.80
2023-03-28T15:33:14.386Z,99420.60
2023-03-28T15:36:11.855Z,99423.60
2023-03-28T15:39:09.811Z,99427.40
2023-03-28T15:42:07.252Z,99433.80
2023-03-28T15:45:05.001Z,99435.80
2023-03-28T15:48:02.601Z,99441.80
2023-03-28T15:51:00.651Z,99443.80
2023-03-28T15:53:59.125Z,99448.00
2023-03-28T15:56:56.593Z,99447.20
2023-03-28T15:59:56.359Z,99456.00
2023-03-28T16:02:53.926Z,99457.40
2023-03-28T16:05:51.726Z,99456.60
2023-03-28T16:08:49.218Z,99455.00
2023-03-28T16:11:46.863Z,99463.80
2023-03-28T16:14:44.533Z,99461.20
2023-03-28T16:17:43.271Z,99474.60
2023-03-28T16:20:41.046Z,99461.40
2023-03-28T16:23:38.479Z,99470.20
2023-03-28T16:26:36.211Z,99472.20
2023-03-28T16:29:33.709Z,99481.80
2023-03-28T16:32:31.434Z,99477.60
2023-03-28T16:35:29.297Z,99483.60
2023-03-28T16:38:26.917Z,99498.80
2023-03-28T16:41:24.917Z,99498.60
2023-03-28T16:44:22.420Z,99501.20
2023-03-28T16:47:20.292Z,99508.40
2023-03-28T16:50:17.950Z,99510.20
2023-03-28T16:53:18.198Z,99508.60
2023-03-28T16:56:17.808Z,99515.80
2023-03-28T16:59:15.556Z,99522.60
2023-03-28T17:02:13.943Z,99528.00
2023-03-28T17:05:11.731Z,99539.80
2023-03-28T17:08:09.558Z,99533.60
2023-03-28T17:11:07.505Z,99536.80
2023-03-28T17:14:06.309Z,99542.80
2023-03-28T17:17:03.905Z,99550.60
2023-03-28T17:20:01.768Z,99541.00
2023-03-28T17:22:59.750Z,99551.20
2023-03-28T17:25:57.977Z,99547.60
2023-03-28T17:28:58.607Z,99568.00
2023-03-28T17:31:56.630Z,99566.80
2023-03-28T17:34:54.698Z,99570.00
2023-03-28T17:37:54.688Z,99565.00
2023-03-28T17:40:56.424Z,99570.60
2023-03-28T17:43:55.345Z,99575.00
2023-03-28T17:46:54.521Z,99580.80
2023-03-28T17:49:53.267Z,99588.40
2023-03-28T17:52:52.423Z,99600.20
2023-03-28T17:55:51.312Z,99595.20
2023-03-28T17:58:50.606Z,99601.80
2023-03-28T18:01:49.043Z,99609.60
2023-03-28T18:04:49.382Z,99608.80
2023-03-28T18:07:48.324Z,99618.60
2023-03-28T18:10:48.652Z,99615.80
2023-03-28T18:13:47.113Z,99618.00
2023-03-28T18:16:46.964Z,99629.60
2023-03-28T18:19:45.854Z,99632.00
2023-03-28T18:22:45.042Z,99635.00
2023-03-28T18:25:42.676Z,99634.80
2023-03-28T18:28:41.320Z,99632.40
2023-03-28T18:31:43.500Z,99640.00
2023-03-28T18:34:43.153Z,99633.40
2023-03-28T18:37:41.822Z,99637.20
2023-03-28T18:40:43.941Z,99627.00
2023-03-28T18:43:44.539Z,99624.00
2023-03-28T18:46:43.368Z,99628.20
2023-03-28T18:49:43.387Z,99631.20
2023-03-28T18:52:41.169Z,99629.80
2023-03-28T18:55:38.790Z,99623.20
2023-03-28T18:58:38.639Z,99627.60
2023-03-28T19:01:42.307Z,99630.80
2023-03-28T19:04:42.872Z,99626.40
2023-03-28T19:07:41.043Z,99620.20
2023-03-28T19:10:41.273Z,99618.00
2023-03-28T19:13:41.070Z,99616.00
2023-03-28T19:16:39.957Z,99613.00
2023-03-28T19:19:39.694Z,99613.40
2023-03-28T19:22:39.405Z,99608.40
2023-03-28T19:25:42.073Z,99606.00
2023-03-28T19:28:41.401Z,99607.20
2023-03-28T19:31:40.285Z,99611.60
2023-03-28T19:34:42.557Z,99603.40
2023-03-28T19:37:40.843Z,99603.00
2023-03-28T19:40:40.547Z,99610.20
2023-03-28T19:43:39.620Z,99602.00
2023-03-28T19:46:39.535Z,99609.60
2023-03-28T19:49:40.080Z,99616.60
2023-03-28T19:52:41.808Z,99612.00
2023-03-28T19:55:41.160Z,99611.20
2023-03-28T19:58:41.446Z,99607.60
2023-03-28T20:01:42.004Z,99608.00
2023-03-28T20:04:40.593Z,99607.80
2023-03-28T20:07:42.477Z,99606.20
2023-03-28T20:10:41.478Z,99594.60
2023-03-28T20:13:39.771Z,99597.40
2023-03-28T20:16:38.813Z,99599.40
2023-03-28T20:19:39.075Z,99600.20
2023-03-28T20:22:38.395Z,99598.40
2023-03-28T20:25:37.194Z,99597.40
2023-03-28T20:28:37.284Z,99600.20
2023-03-28T20:31:35.684Z,99599.60
2023-03-28T20:34:34.691Z,99602.60
2023-03-28T20:37:33.910Z,99607.80
2023-03-28T20:40:31.941Z,99607.60
2023-03-28T20:43:30.036Z,99606.00
2023-03-28T20:46:27.897Z,99606.40
2023-03-28T20:49:27.706Z,99609.60
2023-03-28T20:52:25.208Z,99605.60
2023-03-28T20:55:25.359Z,99610.40
2023-03-28T20:58:23.664Z,99620.20
2023-03-28T21:01:26.423Z,99623.40
2023-03-28T21:04:24.173Z,99625.20
2023-03-28T21:07:22.610Z,99633.40
2023-03-28T21:10:20.774Z,99632.00
2023-03-28T21:13:18.924Z,99629.20
2023-03-28T21:16:17.643Z,99633.80
2023-03-28T21:19:15.387Z,99632.40
2023-03-28T21:22:12.993Z,99639.20
2023-03-28T21:25:10.683Z,99634.20
2023-03-28T21:28:12.747Z,99631.60
2023-03-28T21:31:10.275Z,99626.60
2023-03-28T21:34:07.971Z,99630.40
2023-03-28T21:37:05.402Z,99635.20
2023-03-28T21:40:06.845Z,99639.20
2023-03-28T21:43:04.292Z,99641.80
2023-03-28T21:46:02.135Z,99644.60
2023-03-28T21:48:59.811Z,99649.00
2023-03-28T21:51:57.245Z,99646.20
2023-03-28T21:54:57.702Z,99643.40
2023-03-28T21:57:55.523Z,99648.60
2023-03-28T22:00:53.144Z,99647.60
2023-03-28T22:03:51.121Z,99638.80
2023-03-28T22:06:49.790Z,99638.60
2023-03-28T22:09:52.055Z,99637.40
2023-03-28T22:12:50.094Z,99644.40
2023-03-28T22:15:48.807Z,99645.20
2023-03-28T22:18:50.240Z,99646.40
2023-03-28T22:21:49.373Z,99644.20
2023-03-28T22:24:46.985Z,99644.60
2023-03-28T22:27:45.505Z,99641.80
2023-03-28T22:30:43.144Z,99641.00
2023-03-28T22:33:40.583Z,99636.60
2023-03-28T22:36:38.278Z,99637.80
2023-03-28T22:39:36.139Z,99632.00
2023-03-28T22:42:33.901Z,99629.80
2023-03-28T22:45:31.350Z,99623.80
2023-03-28T22:48:31.727Z,99618.00
2023-03-28T22:51:30.153Z,99609.80
2023-03-28T22:54:27.570Z,99609.20
2023-03-28T22:57:25.297Z,99614.60
2023-03-28T23:00:23.333Z,99619.40
2023-03-28T23:03:21.338Z,99618.00
2023-03-28T23:06:20.404Z,99611.80
2023-03-28T23:09:18.873Z,99611.20
2023-03-28T23:12:16.309Z,99616.40
2023-03-28T23:15:14.542Z,99614.20
2023-03-28T23:18:12.430Z,99621.60
2023-03-28T23:21:09.876Z,99624.80
2023-03-28T23:24:08.962Z,99620.60
2023-03-28T23:27:07.361Z,99618.80
2023-03-28T23:30:05.119Z,99613.80
2023-03-28T23:33:04.248Z,99612.40
2023-03-28T23:36:02.050Z,99609.40
2023-03-28T23:38:59.527Z,99605.60
2023-03-28T23:41:57.178Z,99600.80
2023-03-28T23:44:54.857Z,99592.60
2023-03-28T23:47:52.424Z,99592.80
2023-03-28T23:50:50.211Z,99595.60
2023-03-28T23:53:47.868Z,99598.40
2023-03-28T23:56:46.017Z,99595.00
2023-03-28T23:59:43.632Z,99590.80
